KNTU/NTU METAR and TAF weather

Enter ICAO airport designator
Station Type Date Time Source
KNTU METAR 2019/06/27 07:56 UTC NOAA

KNTU 270756Z 23005KT 10SM BKN260 22/18 A3012 RMK AO2 SLP201 T02220178


Station Type Date Time Source
KNTU Decoded METAR 2019/06/27 07:56 UTC NOAA

OCEANA, NAVAL AIR STATION, VA, United States (KNTU) 36-49N 076-02W 6M
Jun 27, 2019 - 03:56 AM EDT / 2019.06.27 0756 UTC
Wind: from the SW (230 degrees) at 6 MPH (5 KT):0
Visibility: 10 mile(s):0
Sky conditions: mostly cloudy
Temperature: 72.0 F (22.2 C)
Dew Point: 64.0 F (17.8 C)
Relative Humidity: 76%
Pressure (altimeter): 30.12 in. Hg (1019 hPa)
ob: KNTU 270756Z 23005KT 10SM BKN260 22/18 A3012 RMK AO2 SLP201 T02220178
cycle: 8

Station Type Date Time Source
KNTU TAF 2019/06/27 07:18 UTC NOAA

TAF KNTU 2707/2807 VRB06KT 9999 BKN250 QNH3006INS
BECMG 2714/2716 03008KT 9999 SCT050 SCT250 QNH3010INS
BECMG 2800/2802 VRB06KT 9999 FEW050 FEW250 QNH3012INS T25/2710Z T32/2719Z FN00211

Example: see airport list